createdAt,value
2023-01-23T00:01:30.665Z,3.32
2023-01-23T00:03:57.842Z,3.34
2023-01-23T00:06:25.562Z,3.41
2023-01-23T00:08:52.518Z,3.43
2023-01-23T00:11:22.284Z,3.46
2023-01-23T00:13:49.588Z,3.47
2023-01-23T00:16:19.470Z,3.43
2023-01-23T00:18:47.532Z,3.44
2023-01-23T00:21:16.824Z,3.40
2023-01-23T00:23:45.958Z,3.42
2023-01-23T00:26:15.870Z,3.33
2023-01-23T00:28:45.461Z,3.33
2023-01-23T00:31:16.764Z,3.38
2023-01-23T00:33:44.752Z,3.27
2023-01-23T00:36:13.670Z,3.29
2023-01-23T00:38:41.724Z,3.23
2023-01-23T00:41:09.124Z,3.27
2023-01-23T00:43:35.930Z,3.33
2023-01-23T00:46:02.788Z,3.34
2023-01-23T00:48:29.648Z,3.32
2023-01-23T00:50:56.646Z,3.36
2023-01-23T00:53:23.931Z,3.43
2023-01-23T00:55:50.918Z,3.45
2023-01-23T00:58:18.671Z,3.49
2023-01-23T01:00:45.971Z,3.46
2023-01-23T01:03:13.112Z,3.45
2023-01-23T01:05:41.739Z,3.49
2023-01-23T01:08:08.570Z,3.43
2023-01-23T01:10:35.358Z,3.47
2023-01-23T01:13:03.237Z,3.44
2023-01-23T01:15:30.369Z,3.39
2023-01-23T01:17:58.270Z,3.33
2023-01-23T01:20:27.112Z,3.32
2023-01-23T01:22:58.553Z,3.33
2023-01-23T01:25:26.098Z,3.32
2023-01-23T01:27:55.968Z,3.41
2023-01-23T01:30:23.549Z,3.34
2023-01-23T01:32:50.449Z,3.36
2023-01-23T01:35:17.290Z,3.40
2023-01-23T01:37:44.130Z,3.39
2023-01-23T01:40:18.779Z,3.34
2023-01-23T01:42:50.460Z,3.34
2023-01-23T01:45:54.809Z,3.34
2023-01-23T01:48:27.156Z,3.35
2023-01-23T01:50:54.588Z,3.39
2023-01-23T01:53:25.490Z,3.39
2023-01-23T01:55:52.715Z,3.40
2023-01-23T01:58:19.975Z,3.41
2023-01-23T02:00:47.338Z,3.47
2023-01-23T02:03:17.026Z,3.53
2023-01-23T02:05:47.541Z,3.57
2023-01-23T02:08:36.783Z,3.59
2023-01-23T02:11:05.225Z,3.61
2023-01-23T02:13:40.013Z,3.64
2023-01-23T02:16:21.724Z,3.70
2023-01-23T02:18:53.819Z,3.73
2023-01-23T02:21:25.073Z,3.80
2023-01-23T02:24:00.488Z,3.83
2023-01-23T02:26:41.338Z,3.89
2023-01-23T02:29:08.930Z,3.94
2023-01-23T02:31:46.125Z,3.95
2023-01-23T02:34:14.719Z,3.98
2023-01-23T02:36:46.255Z,3.99
2023-01-23T02:39:19.522Z,4.00
2023-01-23T02:41:54.935Z,4.01
2023-01-23T02:44:31.846Z,4.04
2023-01-23T02:47:05.873Z,4.05
2023-01-23T02:49:33.105Z,4.03
2023-01-23T02:52:03.621Z,4.03
2023-01-23T02:54:31.753Z,4.04
2023-01-23T02:56:58.710Z,4.07
2023-01-23T02:59:44.021Z,4.10
2023-01-23T03:02:11.136Z,4.15
2023-01-23T03:04:37.997Z,4.15
2023-01-23T03:07:04.746Z,4.20
2023-01-23T03:09:31.674Z,4.23
2023-01-23T03:11:58.799Z,4.26
2023-01-23T03:14:26.211Z,4.30
2023-01-23T03:16:55.006Z,4.30
2023-01-23T03:19:26.682Z,4.30
2023-01-23T03:21:54.238Z,4.23
2023-01-23T03:24:21.164Z,4.21
2023-01-23T03:26:49.827Z,4.20
2023-01-23T03:29:41.491Z,4.20
2023-01-23T03:32:11.392Z,4.21
2023-01-23T03:34:39.023Z,4.23
2023-01-23T03:37:08.047Z,4.27
2023-01-23T03:39:55.117Z,4.30
2023-01-23T03:42:22.712Z,4.36
2023-01-23T03:44:53.025Z,4.36
2023-01-23T03:47:24.048Z,4.37
2023-01-23T03:49:50.889Z,4.39
2023-01-23T03:52:18.971Z,4.41
2023-01-23T03:54:45.831Z,4.39
2023-01-23T03:57:12.595Z,4.38
2023-01-23T03:59:48.782Z,4.37
2023-01-23T04:02:18.300Z,4.39
2023-01-23T04:04:45.215Z,4.44
2023-01-23T04:07:12.103Z,4.45
2023-01-23T04:09:41.095Z,4.49
2023-01-23T04:12:07.975Z,4.50
2023-01-23T04:14:38.835Z,4.53
2023-01-23T04:17:06.564Z,4.54
2023-01-23T04:19:34.632Z,4.56
2023-01-23T04:22:02.495Z,4.57
2023-01-23T04:24:33.591Z,4.59
2023-01-23T04:27:00.386Z,4.61
2023-01-23T04:29:28.413Z,4.64
2023-01-23T04:31:55.306Z,4.65
2023-01-23T04:34:22.324Z,4.66
2023-01-23T04:36:51.025Z,4.66
2023-01-23T04:39:17.885Z,4.64
2023-01-23T04:41:48.068Z,4.64
2023-01-23T04:44:27.465Z,4.63
2023-01-23T04:47:20.561Z,4.63
2023-01-23T04:49:48.432Z,4.64
2023-01-23T04:52:15.284Z,4.58
2023-01-23T04:54:51.204Z,4.49
2023-01-23T04:57:18.091Z,4.42
2023-01-23T04:59:44.930Z,4.32
2023-01-23T05:02:11.803Z,4.24
2023-01-23T05:04:42.391Z,4.21
2023-01-23T05:07:12.232Z,4.16
2023-01-23T05:09:44.040Z,4.22
2023-01-23T05:12:14.422Z,4.29
2023-01-23T05:14:42.046Z,4.24
2023-01-23T05:17:09.475Z,4.26
2023-01-23T05:19:41.679Z,4.36
2023-01-23T05:22:08.529Z,4.52
2023-01-23T05:24:35.445Z,4.71
2023-01-23T05:27:03.348Z,4.90
2023-01-23T05:29:30.977Z,5.08
2023-01-23T05:32:03.064Z,5.24
2023-01-23T05:34:39.121Z,5.39
2023-01-23T05:37:34.923Z,5.53
2023-01-23T05:40:08.710Z,5.64
2023-01-23T05:43:07.728Z,5.74
2023-01-23T05:46:07.098Z,5.81
2023-01-23T05:49:00.219Z,5.83
2023-01-23T05:51:32.415Z,5.89
2023-01-23T05:54:02.117Z,5.90
2023-01-23T05:56:29.329Z,5.95
2023-01-23T05:59:16.355Z,5.95
2023-01-23T06:01:54.547Z,5.95
2023-01-23T06:04:39.656Z,5.93
2023-01-23T06:07:18.766Z,5.94
2023-01-23T06:09:47.438Z,5.92
2023-01-23T06:12:14.837Z,5.95
2023-01-23T06:14:41.683Z,5.92
2023-01-23T06:17:08.838Z,5.92
2023-01-23T06:19:35.970Z,5.87
2023-01-23T06:22:03.850Z,5.86
2023-01-23T06:24:37.864Z,5.85
2023-01-23T06:27:08.361Z,5.86
2023-01-23T06:29:36.947Z,5.84
2023-01-23T06:32:04.663Z,5.82
2023-01-23T06:34:31.587Z,5.81
2023-01-23T06:37:03.079Z,5.79
2023-01-23T06:39:34.201Z,5.79
2023-01-23T06:42:02.191Z,5.74
2023-01-23T06:44:29.034Z,5.72
2023-01-23T06:46:55.997Z,5.75
2023-01-23T06:49:24.395Z,5.75
2023-01-23T06:51:52.304Z,5.72
2023-01-23T06:54:19.602Z,5.74
2023-01-23T06:56:46.360Z,5.74
2023-01-23T06:59:13.396Z,5.74
2023-01-23T07:01:40.997Z,5.76
2023-01-23T07:04:26.302Z,5.77
2023-01-23T07:06:53.279Z,5.79
2023-01-23T07:09:20.783Z,5.79
2023-01-23T07:12:00.087Z,5.83
2023-01-23T07:14:28.914Z,5.82
2023-01-23T07:16:56.790Z,5.84
2023-01-23T07:19:24.280Z,5.85
2023-01-23T07:21:51.193Z,5.87
2023-01-23T07:24:18.018Z,5.89
2023-01-23T07:26:44.873Z,5.89
2023-01-23T07:29:11.770Z,5.90
2023-01-23T07:31:38.740Z,5.83
2023-01-23T07:34:05.564Z,5.85
2023-01-23T07:36:32.357Z,5.83
2023-01-23T07:38:59.143Z,5.83
2023-01-23T07:41:25.981Z,5.86
2023-01-23T07:43:52.730Z,5.89
2023-01-23T07:46:19.548Z,5.89
2023-01-23T07:48:46.332Z,5.93
2023-01-23T07:51:13.185Z,5.95
2023-01-23T07:53:40.040Z,5.96
2023-01-23T07:56:07.238Z,5.95
2023-01-23T07:58:34.181Z,5.95
2023-01-23T08:01:08.271Z,5.91
2023-01-23T08:03:35.094Z,5.84
2023-01-23T08:06:01.861Z,5.81
2023-01-23T08:08:28.709Z,5.77
2023-01-23T08:10:55.480Z,5.80
2023-01-23T08:13:22.194Z,5.89
2023-01-23T08:15:48.957Z,5.97
2023-01-23T08:18:15.780Z,6.04
2023-01-23T08:20:42.531Z,6.10
2023-01-23T08:23:09.276Z,6.19
2023-01-23T08:25:38.426Z,6.24
2023-01-23T08:28:05.399Z,6.29
2023-01-23T08:30:32.443Z,6.35
2023-01-23T08:33:00.104Z,6.40
2023-01-23T08:35:27.144Z,6.49
2023-01-23T08:37:54.174Z,6.57
2023-01-23T08:40:21.442Z,6.58
2023-01-23T08:42:48.566Z,6.58
2023-01-23T08:45:15.510Z,6.57
2023-01-23T08:47:42.473Z,6.57
2023-01-23T08:50:10.250Z,6.58
2023-01-23T08:52:37.148Z,6.63
2023-01-23T08:55:04.184Z,6.80
2023-01-23T08:57:30.999Z,6.99
2023-01-23T08:59:58.082Z,7.13
2023-01-23T09:02:24.844Z,7.25
2023-01-23T09:04:51.602Z,7.35
2023-01-23T09:07:18.558Z,7.40
2023-01-23T09:09:45.264Z,7.44
2023-01-23T09:12:12.092Z,7.50
2023-01-23T09:14:39.011Z,7.55
2023-01-23T09:17:06.363Z,7.65
2023-01-23T09:19:33.711Z,7.71
2023-01-23T09:22:00.546Z,7.82
2023-01-23T09:24:27.337Z,7.85
2023-01-23T09:26:54.196Z,7.86
2023-01-23T09:29:20.971Z,7.90
2023-01-23T09:31:47.859Z,7.92
2023-01-23T09:34:17.072Z,7.88
2023-01-23T09:36:44.156Z,7.83
2023-01-23T09:39:12.127Z,7.77
2023-01-23T09:41:40.736Z,7.70
2023-01-23T09:44:25.669Z,7.65
2023-01-23T09:46:54.943Z,7.57
2023-01-23T09:49:49.478Z,7.49
2023-01-23T09:52:26.071Z,7.40
2023-01-23T09:55:02.051Z,7.37
2023-01-23T09:57:42.826Z,7.31
2023-01-23T10:00:32.997Z,7.24
2023-01-23T10:03:11.106Z,7.16
2023-01-23T10:05:46.881Z,7.04
2023-01-23T10:08:46.751Z,6.94
2023-01-23T10:11:13.830Z,6.82
2023-01-23T10:13:48.238Z,6.73
2023-01-23T10:16:38.171Z,6.65
2023-01-23T10:19:36.522Z,6.66
2023-01-23T10:22:09.002Z,6.66
2023-01-23T10:24:51.830Z,6.65
2023-01-23T10:27:22.900Z,6.59
2023-01-23T10:30:14.519Z,6.54
2023-01-23T10:33:01.131Z,6.66
2023-01-23T10:35:40.917Z,6.75
2023-01-23T10:38:49.941Z,6.82
2023-01-23T10:41:23.353Z,6.85
2023-01-23T10:43:52.712Z,6.82
2023-01-23T10:46:44.135Z,6.79
2023-01-23T10:49:11.004Z,6.88
2023-01-23T10:51:37.714Z,6.99
2023-01-23T10:54:25.958Z,7.03
2023-01-23T10:57:22.786Z,6.84
2023-01-23T11:00:01.469Z,6.95
2023-01-23T11:02:34.350Z,7.09
2023-01-23T11:05:02.869Z,7.27
2023-01-23T11:07:32.186Z,7.44
2023-01-23T11:10:13.285Z,7.34
2023-01-23T11:12:49.251Z,7.40
2023-01-23T11:15:31.247Z,7.29
2023-01-23T11:18:00.725Z,7.32
2023-01-23T11:20:37.615Z,7.26
2023-01-23T11:23:13.260Z,7.19
2023-01-23T11:25:42.409Z,7.23
2023-01-23T11:28:24.924Z,7.14
2023-01-23T11:31:15.762Z,7.10
2023-01-23T11:34:04.036Z,7.14
2023-01-23T11:36:43.007Z,7.23
2023-01-23T11:39:23.119Z,7.22
2023-01-23T11:41:50.203Z,7.32
2023-01-23T11:44:21.135Z,7.28
2023-01-23T11:47:26.475Z,7.28
2023-01-23T11:49:53.157Z,7.17
2023-01-23T11:52:34.910Z,7.18
2023-01-23T11:55:39.293Z,7.29
2023-01-23T11:58:14.819Z,7.27
2023-01-23T12:01:15.479Z,7.38
2023-01-23T12:04:00.041Z,7.32
2023-01-23T12:06:40.444Z,7.32
2023-01-23T12:09:18.531Z,7.24
2023-01-23T12:11:50.790Z,7.31
2023-01-23T12:14:46.051Z,7.47
2023-01-23T12:17:18.984Z,7.60
2023-01-23T12:20:06.989Z,7.60
2023-01-23T12:23:11.087Z,7.67
2023-01-23T12:25:40.320Z,7.73
2023-01-23T12:28:37.436Z,7.81
2023-01-23T12:31:08.224Z,7.64
2023-01-23T12:33:56.848Z,7.67
2023-01-23T12:36:28.648Z,7.63
2023-01-23T12:39:10.455Z,7.65
2023-01-23T12:41:45.483Z,7.85
2023-01-23T12:44:27.851Z,7.93
2023-01-23T12:46:57.351Z,7.99
2023-01-23T12:49:28.252Z,7.96
2023-01-23T12:52:20.761Z,7.85
2023-01-23T12:55:07.845Z,7.74
2023-01-23T12:57:58.954Z,7.65
2023-01-23T13:00:52.871Z,7.76
2023-01-23T13:03:44.809Z,7.96
2023-01-23T13:06:34.868Z,8.09
2023-01-23T13:09:18.433Z,8.18
2023-01-23T13:12:20.448Z,8.26
2023-01-23T13:15:13.938Z,8.20
2023-01-23T13:17:49.428Z,8.33
2023-01-23T13:20:42.679Z,8.24
2023-01-23T13:23:31.206Z,8.28
2023-01-23T13:26:16.012Z,8.23
2023-01-23T13:29:04.021Z,8.26
2023-01-23T13:31:38.257Z,8.37
2023-01-23T13:34:17.072Z,8.50
2023-01-23T13:36:48.376Z,8.59
2023-01-23T13:39:18.057Z,8.53
2023-01-23T13:41:46.637Z,8.48
2023-01-23T13:44:21.343Z,8.52
2023-01-23T14:22:31.275Z,8.12
2023-01-23T14:24:58.253Z,8.05
2023-01-23T14:27:51.242Z,7.99
2023-01-23T14:30:28.211Z,7.91
2023-01-23T14:32:55.635Z,7.87
2023-01-23T14:35:28.294Z,7.87
2023-01-23T14:37:59.224Z,7.87
2023-01-23T14:40:30.589Z,7.88
2023-01-23T14:43:05.010Z,7.88
2023-01-23T14:45:33.531Z,7.89
2023-01-23T14:48:06.351Z,7.87
2023-01-23T14:50:33.823Z,7.85
2023-01-23T14:53:04.047Z,7.78
2023-01-23T14:55:35.235Z,7.76
2023-01-23T14:58:04.129Z,7.74
2023-01-23T15:00:32.044Z,7.73
2023-01-23T15:02:58.848Z,7.73
2023-01-23T15:05:27.576Z,7.72
2023-01-23T15:08:07.416Z,7.72
2023-01-23T15:10:46.869Z,7.72
2023-01-23T15:13:24.843Z,7.71
2023-01-23T15:16:06.429Z,7.70
2023-01-23T15:18:36.024Z,7.69
2023-01-23T15:21:05.906Z,7.68
2023-01-23T15:23:40.498Z,7.69
2023-01-23T15:26:19.737Z,7.68
2023-01-23T15:28:55.754Z,7.69
2023-01-23T15:31:29.920Z,7.57
2023-01-23T15:34:18.892Z,7.56
2023-01-23T15:37:06.480Z,7.53
2023-01-23T15:39:51.967Z,7.50
2023-01-23T15:42:18.669Z,7.50
2023-01-23T15:44:45.661Z,7.50
2023-01-23T15:47:12.480Z,7.52
2023-01-23T15:49:40.356Z,7.52
2023-01-23T15:52:25.919Z,7.52
2023-01-23T15:55:00.802Z,7.50
2023-01-23T15:57:27.772Z,7.50
2023-01-23T15:59:54.840Z,7.50
2023-01-23T16:02:30.663Z,7.50
2023-01-23T16:04:58.982Z,7.50
2023-01-23T16:07:47.093Z,7.53
2023-01-23T16:10:16.746Z,7.55
2023-01-23T16:12:44.213Z,7.57
2023-01-23T16:15:19.583Z,7.60
2023-01-23T16:17:47.069Z,7.62
2023-01-23T16:20:19.158Z,7.63
2023-01-23T16:22:51.187Z,7.64
2023-01-23T16:25:42.931Z,7.63
2023-01-23T16:28:21.987Z,7.61
2023-01-23T16:30:50.871Z,7.60
2023-01-23T16:33:18.145Z,7.62
2023-01-23T16:35:45.527Z,7.64
2023-01-23T16:38:20.088Z,7.64
2023-01-23T16:40:47.084Z,7.65
2023-01-23T16:43:13.914Z,7.64
2023-01-23T16:45:40.689Z,7.64
2023-01-23T16:48:09.175Z,7.58
2023-01-23T16:51:00.402Z,7.55
2023-01-23T16:53:27.201Z,7.54
2023-01-23T16:55:58.059Z,7.54
2023-01-23T16:58:28.863Z,7.53
2023-01-23T17:01:03.277Z,7.53
2023-01-23T17:03:35.239Z,7.53
2023-01-23T17:06:02.336Z,7.53
2023-01-23T17:08:29.365Z,7.56
2023-01-23T17:11:00.539Z,7.54
2023-01-23T17:13:31.016Z,7.54
2023-01-23T17:15:59.183Z,7.53
2023-01-23T17:18:29.066Z,7.53
2023-01-23T17:20:57.499Z,7.54
2023-01-23T17:23:25.545Z,7.54
2023-01-23T17:26:00.924Z,7.55
2023-01-23T17:28:29.237Z,7.56
2023-01-23T17:31:00.561Z,7.58
2023-01-23T17:33:31.700Z,7.61
2023-01-23T17:36:00.455Z,7.64
2023-01-23T17:38:34.553Z,7.63
2023-01-23T17:41:01.586Z,7.63
2023-01-23T17:43:29.102Z,7.61
2023-01-23T17:45:56.092Z,7.56
2023-01-23T17:48:29.430Z,7.55
2023-01-23T17:50:56.625Z,7.55
2023-01-23T17:53:27.849Z,7.54
2023-01-23T17:55:54.849Z,7.53
2023-01-23T17:58:21.690Z,7.53
2023-01-23T18:00:51.133Z,7.52
2023-01-23T18:03:22.001Z,7.53
2023-01-23T18:05:48.877Z,7.50
2023-01-23T18:08:18.266Z,7.50
2023-01-23T18:10:47.800Z,7.52
2023-01-23T18:13:42.250Z,7.52
2023-01-23T18:16:23.975Z,7.54
2023-01-23T18:19:13.311Z,7.55
2023-01-23T18:21:40.662Z,7.56
2023-01-23T18:24:29.295Z,7.57
2023-01-23T18:26:58.249Z,7.58
2023-01-23T18:29:33.605Z,7.60
2023-01-23T18:32:10.090Z,7.61
2023-01-23T18:34:55.338Z,7.60
2023-01-23T18:37:32.092Z,7.59
2023-01-23T18:40:18.195Z,7.58
2023-01-23T18:43:04.467Z,7.57
2023-01-23T18:45:31.941Z,7.56
2023-01-23T18:47:59.139Z,7.54
2023-01-23T18:50:27.122Z,7.52
2023-01-23T18:53:17.523Z,7.49
2023-01-23T18:55:58.658Z,7.47
2023-01-23T18:58:34.397Z,7.47
2023-01-23T19:01:13.526Z,7.47
2023-01-23T19:03:43.568Z,7.45
2023-01-23T19:06:20.045Z,7.41
2023-01-23T19:08:48.389Z,7.39
2023-01-23T19:11:52.418Z,7.35
2023-01-23T19:14:45.981Z,7.37
2023-01-23T19:17:41.369Z,7.34
2023-01-23T19:20:23.332Z,7.37
2023-01-23T19:22:55.459Z,7.40
2023-01-23T19:25:22.941Z,7.41
2023-01-23T19:27:56.073Z,7.41
2023-01-23T19:30:23.623Z,7.44
2023-01-23T19:32:50.613Z,7.43
2023-01-23T19:35:18.393Z,7.43
2023-01-23T19:37:45.507Z,7.42
2023-01-23T19:40:14.559Z,7.43
2023-01-23T19:43:01.411Z,7.42
2023-01-23T19:45:30.638Z,7.39
2023-01-23T19:47:59.372Z,7.39
2023-01-23T19:50:26.332Z,7.34
2023-01-23T19:52:55.176Z,7.33
2023-01-23T19:55:26.229Z,7.24
2023-01-23T19:57:54.146Z,7.24
2023-01-23T20:00:21.517Z,7.18
2023-01-23T20:02:48.856Z,7.19
2023-01-23T20:05:15.759Z,7.20
2023-01-23T20:07:42.832Z,7.22
2023-01-23T20:10:11.285Z,7.22
2023-01-23T20:12:46.012Z,7.18
2023-01-23T20:15:14.821Z,7.19
2023-01-23T20:17:41.920Z,7.24
2023-01-23T20:20:11.402Z,7.27
2023-01-23T20:22:39.563Z,7.29
2023-01-23T20:25:08.703Z,7.32
2023-01-23T20:27:36.540Z,7.35
2023-01-23T20:30:07.193Z,7.37
2023-01-23T20:32:34.286Z,7.38
2023-01-23T20:35:01.262Z,7.40
2023-01-23T20:37:28.553Z,7.44
2023-01-23T20:39:55.879Z,7.44
2023-01-23T20:42:22.641Z,7.44
2023-01-23T20:44:49.648Z,7.45
2023-01-23T20:47:16.515Z,7.43
2023-01-23T20:49:43.343Z,7.43
2023-01-23T20:52:28.550Z,7.42
2023-01-23T20:54:55.363Z,7.40
2023-01-23T20:57:22.211Z,7.38
2023-01-23T20:59:49.021Z,7.34
2023-01-23T21:02:25.643Z,7.35
2023-01-23T21:04:53.247Z,7.34
2023-01-23T21:07:22.852Z,7.34
2023-01-23T21:09:49.706Z,7.35
2023-01-23T21:12:16.657Z,7.30
2023-01-23T21:14:43.433Z,7.29
2023-01-23T21:17:10.798Z,7.28
2023-01-23T21:19:39.087Z,7.27
2023-01-23T21:22:06.862Z,7.28
2023-01-23T21:24:34.736Z,7.27
2023-01-23T21:27:03.711Z,7.30
2023-01-23T21:29:31.473Z,7.30
2023-01-23T21:31:59.045Z,7.31
2023-01-23T21:34:26.537Z,7.32
2023-01-23T21:36:53.500Z,7.34
2023-01-23T21:39:20.295Z,7.32
2023-01-23T21:41:47.207Z,7.33
2023-01-23T21:44:14.199Z,7.32
2023-01-23T21:46:41.539Z,7.31
2023-01-23T21:49:08.508Z,7.33
2023-01-23T21:51:35.391Z,7.33
2023-01-23T21:54:02.295Z,7.33
2023-01-23T21:56:29.186Z,7.34
2023-01-23T21:58:56.105Z,7.34
2023-01-23T22:01:35.698Z,7.35
2023-01-23T22:04:09.421Z,7.38
2023-01-23T22:06:38.295Z,7.38
2023-01-23T22:09:06.248Z,7.35
2023-01-23T22:11:33.483Z,7.38
2023-01-23T22:14:00.500Z,7.31
2023-01-23T22:16:45.641Z,7.32
2023-01-23T22:19:15.533Z,7.31
2023-01-23T22:21:43.842Z,7.31
2023-01-23T22:24:10.708Z,7.32
2023-01-23T22:26:37.603Z,7.30
2023-01-23T22:29:04.355Z,7.30
2023-01-23T22:31:31.207Z,7.31
2023-01-23T22:33:58.130Z,7.33
2023-01-23T22:36:24.980Z,7.34
2023-01-23T22:38:53.338Z,7.39
2023-01-23T22:41:20.824Z,7.40
2023-01-23T22:43:53.064Z,7.41
2023-01-23T22:46:20.026Z,7.43
2023-01-23T22:48:46.920Z,7.43
2023-01-23T22:51:27.013Z,7.43
2023-01-23T22:53:56.108Z,7.40
2023-01-23T22:56:24.266Z,7.34
2023-01-23T22:58:52.595Z,7.32
2023-01-23T23:01:20.575Z,7.29
2023-01-23T23:03:47.379Z,7.28
2023-01-23T23:06:16.390Z,7.26
2023-01-23T23:08:47.265Z,7.27
2023-01-23T23:11:23.510Z,7.27
2023-01-23T23:13:50.491Z,7.28
2023-01-23T23:16:22.630Z,7.28
2023-01-23T23:18:52.401Z,7.29
2023-01-23T23:21:22.833Z,7.28
2023-01-23T23:23:50.349Z,7.28
2023-01-23T23:26:17.209Z,7.29
2023-01-23T23:28:44.335Z,7.28
2023-01-23T23:31:11.333Z,7.28
2023-01-23T23:33:38.496Z,7.30
2023-01-23T23:36:06.469Z,7.30
2023-01-23T23:38:33.217Z,7.32
2023-01-23T23:41:02.480Z,7.31
2023-01-23T23:43:29.691Z,7.32
2023-01-23T23:46:02.137Z,7.32
2023-01-23T23:48:30.571Z,7.33
2023-01-23T23:51:00.504Z,7.34
2023-01-23T23:53:27.522Z,7.35
2023-01-23T23:55:54.430Z,7.35
2023-01-23T23:58:21.307Z,7.35
